Aeroporto :
LOGIN :

Iscrizione | Disclaimer

   EN    FR    IT 

 










Sommario :    VFR   VFR Marginale   IFR   IFR Intensivo   IFR Molto Intensivo
Visibilità : 
Base nubi : 
>= 8 km
>= 3000ft
5 / 8 km
1000 / 3000 ft
1500m / 5 km
500 / 1000 ft
800 / 1500m
200 / 500 ft
< 800m
< 200 ft
Simboli :   Temporali  Nebbia  Neve Forte  Precipitazioni Forti  Vento > 20 kt
SIGMETs :   Varie  Temporali  Ghiacco  Turbolenza  Onda orograficha  Ceneri Vulcaniche






- Altitudine del aeroporto : 17 ft
- Codice IATA : GRS


LIRS - Grosseto

ULTIMO METAR :
  • 040055Z 04005KT CAVOK 04/02 Q1004

METARs OBSOLETI :
  • 032355Z 03004KT CAVOK 04/01 Q1004 RMK SKC VIS MIN 9999 WIND
  • 032255Z 07005KT CAVOK 04/01 Q1005 RMK SKC VIS MIN 9999 WIND

TAF TAF LIRS
Valido dal 04 a 00 ore il 04 a 09 ore UTC


032300Z 0400/0409 03005KT 9999 FEW030
PROB40
TEMPO 0400/0405 5000 BR



MetMap, La meteo Aeronautica in un colpo d'occhio ! - Copyright ORBIFLY Dicembre 2007 - Disclaimer

ORBIFLY MET'MAP TEAM :

Programmazione e sviluppo : Alexandra Zaïnal
Concezione : Baudouin d'Aumeries
Aiuto per la programmazione : Marc-Olivier Méhu
Supporto tecnico e logistico : Manuel Goepfert
Aiuto per la traduzione : Arnaldo La Scala

Contatto : metmap@orbifly.com




FONTI E CREDITI :

   NOAA